createdAt,value
2018-11-10T00:01:13.248Z,12.98
2018-11-10T00:03:46.703Z,12.92
2018-11-10T00:06:19.640Z,12.88
2018-11-10T00:08:52.651Z,12.86
2018-11-10T00:11:27.467Z,12.83
2018-11-10T00:14:00.520Z,12.86
2018-11-10T00:16:33.956Z,12.82
2018-11-10T00:19:06.866Z,12.81
2018-11-10T00:21:40.157Z,12.82
2018-11-10T00:24:13.742Z,12.79
2018-11-10T00:26:46.546Z,12.85
2018-11-10T00:29:18.901Z,12.82
2018-11-10T00:31:51.250Z,12.82
2018-11-10T00:34:24.455Z,12.85
2018-11-10T00:36:56.890Z,12.90
2018-11-10T00:39:29.759Z,12.89
2018-11-10T00:42:02.668Z,12.98
2018-11-10T00:44:35.518Z,13.00
2018-11-10T00:47:09.066Z,13.01
2018-11-10T00:49:41.621Z,13.08
2018-11-10T00:52:15.607Z,13.05
2018-11-10T00:54:48.641Z,13.09
2018-11-10T00:57:21.278Z,13.08
2018-11-10T00:59:54.441Z,13.08
2018-11-10T01:02:27.487Z,13.09
2018-11-10T01:05:00.032Z,13.09
2018-11-10T01:07:33.009Z,13.09
2018-11-10T01:10:05.277Z,13.18
2018-11-10T01:12:37.620Z,13.17
2018-11-10T01:15:13.839Z,13.16
2018-11-10T01:17:46.638Z,13.16
2018-11-10T01:20:20.679Z,13.16
2018-11-10T01:22:53.162Z,13.18
2018-11-10T01:25:26.002Z,13.17
2018-11-10T01:27:58.389Z,13.12
2018-11-10T01:30:31.208Z,13.05
2018-11-10T01:33:03.409Z,13.01
2018-11-10T01:35:49.560Z,12.98
2018-11-10T01:38:24.084Z,13.00
2018-11-10T01:40:57.204Z,13.00
2018-11-10T01:43:30.839Z,12.97
2018-11-10T01:46:03.513Z,12.95
2018-11-10T01:48:36.210Z,12.93
2018-11-10T01:51:09.519Z,12.92
2018-11-10T01:53:41.998Z,12.95
2018-11-10T01:56:15.178Z,12.96
2018-11-10T01:58:48.987Z,13.03
2018-11-10T02:01:21.456Z,13.12
2018-11-10T02:03:54.455Z,13.15
2018-11-10T02:06:27.654Z,13.12
2018-11-10T02:09:01.144Z,13.13
2018-11-10T02:11:34.197Z,13.14
2018-11-10T02:14:06.901Z,13.11
2018-11-10T02:16:39.555Z,13.15
2018-11-10T02:19:11.987Z,13.12
2018-11-10T02:21:44.321Z,13.10
2018-11-10T02:24:16.982Z,13.16
2018-11-10T02:26:50.705Z,13.15
2018-11-10T02:29:23.850Z,13.25
2018-11-10T02:31:56.579Z,13.25
2018-11-10T02:34:28.737Z,13.27
2018-11-10T02:37:02.020Z,13.27
2018-11-10T02:39:39.119Z,13.29
2018-11-10T02:42:24.581Z,13.34
2018-11-10T02:45:14.219Z,13.32
2018-11-10T02:48:03.108Z,13.31
2018-11-10T02:50:38.970Z,13.40
2018-11-10T02:53:11.160Z,13.37
2018-11-10T02:55:43.425Z,13.39
2018-11-10T02:58:16.393Z,13.40
2018-11-10T03:00:49.070Z,13.45
2018-11-10T03:03:22.625Z,13.47
2018-11-10T03:05:55.188Z,13.49
2018-11-10T03:08:28.307Z,13.55
2018-11-10T03:11:00.647Z,13.51
2018-11-10T03:13:33.516Z,13.53
2018-11-10T03:16:06.149Z,13.57
2018-11-10T03:18:38.788Z,13.58
2018-11-10T03:21:11.222Z,13.58
2018-11-10T03:23:43.473Z,13.62
2018-11-10T03:26:16.548Z,13.64
2018-11-10T03:28:50.112Z,13.68
2018-11-10T03:31:23.274Z,13.72
2018-11-10T03:33:57.207Z,13.78
2018-11-10T03:36:29.876Z,13.84
2018-11-10T03:39:02.032Z,13.86
2018-11-10T03:41:34.684Z,13.82
2018-11-10T03:44:07.995Z,13.89
2018-11-10T03:46:40.037Z,14.00
2018-11-10T03:49:12.563Z,13.97
2018-11-10T03:51:45.187Z,13.99
2018-11-10T03:54:17.326Z,14.06
2018-11-10T03:56:50.456Z,14.00
2018-11-10T03:59:20.428Z,14.03
2018-11-10T04:01:49.775Z,14.08
2018-11-10T04:04:19.080Z,14.16
2018-11-10T04:06:48.354Z,14.15
2018-11-10T04:09:17.815Z,14.18
2018-11-10T04:11:47.665Z,14.16
2018-11-10T04:14:17.035Z,14.26
2018-11-10T04:16:46.388Z,14.26
2018-11-10T04:19:15.840Z,14.30
2018-11-10T04:21:45.210Z,14.32
2018-11-10T04:24:14.466Z,14.32
2018-11-10T04:26:44.285Z,14.31
2018-11-10T04:29:13.600Z,14.31
2018-11-10T04:31:44.372Z,14.32
2018-11-10T04:34:13.883Z,14.38
2018-11-10T04:36:43.463Z,14.43
2018-11-10T04:39:12.787Z,14.51
2018-11-10T04:41:44.946Z,14.45
2018-11-10T04:44:14.589Z,14.41
2018-11-10T04:46:44.923Z,14.41
2018-11-10T04:49:14.524Z,14.42
2018-11-10T04:51:44.096Z,14.39
2018-11-10T04:54:13.757Z,14.43
2018-11-10T04:56:44.031Z,14.46
2018-11-10T04:59:13.271Z,14.56
2018-11-10T05:01:42.762Z,14.46
2018-11-10T05:04:12.097Z,14.41
2018-11-10T05:06:41.477Z,14.51
2018-11-10T05:09:11.857Z,14.48
2018-11-10T05:11:41.779Z,14.52
2018-11-10T05:14:11.177Z,14.46
2018-11-10T05:16:40.581Z,14.49
2018-11-10T05:19:10.451Z,14.44
2018-11-10T05:21:40.207Z,14.44
2018-11-10T05:24:09.897Z,14.37
2018-11-10T05:26:39.317Z,14.38
2018-11-10T05:29:09.044Z,14.27
2018-11-10T05:31:38.481Z,14.19
2018-11-10T05:34:08.373Z,14.06
2018-11-10T05:36:38.269Z,13.94
2018-11-10T05:39:09.057Z,13.78
2018-11-10T05:41:38.407Z,13.72
2018-11-10T05:44:07.783Z,13.54
2018-11-10T05:46:37.143Z,13.41
2018-11-10T05:49:06.831Z,13.32
2018-11-10T05:51:36.535Z,13.18
2018-11-10T05:54:06.903Z,13.05
2018-11-10T05:56:36.561Z,12.96
2018-11-10T05:59:06.361Z,12.93
2018-11-10T06:01:36.589Z,12.85
2018-11-10T06:04:05.993Z,12.80
2018-11-10T06:06:35.425Z,12.78
2018-11-10T06:09:06.674Z,12.73
2018-11-10T06:11:36.171Z,12.69
2018-11-10T06:14:06.530Z,12.67
2018-11-10T06:16:36.078Z,12.63
2018-11-10T06:19:06.004Z,12.64
2018-11-10T06:21:35.378Z,12.66
2018-11-10T06:24:06.478Z,12.57
2018-11-10T06:26:35.837Z,12.58
2018-11-10T06:29:05.584Z,12.57
2018-11-10T06:31:35.045Z,12.54
2018-11-10T06:34:07.211Z,12.50
2018-11-10T06:36:38.822Z,12.49
2018-11-10T06:39:10.588Z,12.48
2018-11-10T06:41:40.482Z,12.46
2018-11-10T06:44:10.461Z,12.43
2018-11-10T06:46:40.714Z,12.45
2018-11-10T06:49:11.230Z,12.48
2018-11-10T06:51:41.534Z,12.51
2018-11-10T06:54:12.714Z,12.51
2018-11-10T06:56:42.118Z,12.49
2018-11-10T06:59:11.789Z,12.51
2018-11-10T07:01:41.223Z,12.48
2018-11-10T07:04:10.823Z,12.47
2018-11-10T07:06:41.027Z,12.51
2018-11-10T07:09:12.085Z,12.51
2018-11-10T07:11:42.289Z,12.52
2018-11-10T07:14:11.800Z,12.51
2018-11-10T07:16:41.489Z,12.49
2018-11-10T07:19:10.993Z,12.50
2018-11-10T07:21:41.228Z,12.49
2018-11-10T07:24:11.650Z,12.48
2018-11-10T07:26:40.925Z,12.47
2018-11-10T07:29:13.318Z,12.47
2018-11-10T07:31:42.786Z,12.46
2018-11-10T07:34:12.261Z,12.51
2018-11-10T07:36:41.638Z,12.52
2018-11-10T07:39:13.305Z,12.58
2018-11-10T07:41:42.783Z,12.66
2018-11-10T07:44:14.898Z,12.65
2018-11-10T07:46:44.503Z,12.64
2018-11-10T07:49:16.698Z,12.66
2018-11-10T07:51:46.335Z,12.76
2018-11-10T07:54:17.586Z,12.72
2018-11-10T07:56:47.118Z,12.73
2018-11-10T07:59:16.561Z,12.80
2018-11-10T08:01:46.025Z,12.76
2018-11-10T08:04:17.043Z,12.77
2018-11-10T08:06:46.405Z,12.75
2018-11-10T08:09:15.971Z,12.77
2018-11-10T08:11:45.304Z,12.85
2018-11-10T08:14:15.186Z,12.91
2018-11-10T08:16:46.421Z,12.87
2018-11-10T08:19:17.723Z,12.89
2018-11-10T08:21:47.143Z,12.91
2018-11-10T08:24:16.689Z,12.97
2018-11-10T08:26:46.674Z,12.94
2018-11-10T08:29:18.612Z,12.98
2018-11-10T08:31:48.150Z,13.06
2018-11-10T08:34:18.376Z,13.11
2018-11-10T08:36:47.732Z,13.15
2018-11-10T08:39:18.464Z,13.21
2018-11-10T08:41:47.905Z,13.23
2018-11-10T08:44:18.110Z,13.22
2018-11-10T08:46:47.512Z,13.26
2018-11-10T08:49:17.863Z,13.30
2018-11-10T08:51:47.372Z,13.37
2018-11-10T08:54:16.990Z,13.38
2018-11-10T08:56:46.598Z,13.38
2018-11-10T08:59:17.139Z,13.42
2018-11-10T09:01:46.701Z,13.48
2018-11-10T09:04:18.051Z,13.43
2018-11-10T09:06:47.807Z,13.48
2018-11-10T09:09:18.396Z,13.43
2018-11-10T09:11:48.108Z,13.46
2018-11-10T09:14:18.109Z,13.43
2018-11-10T09:16:47.511Z,13.45
2018-11-10T09:19:16.946Z,13.49
2018-11-10T09:21:46.478Z,13.51
2018-11-10T09:24:16.742Z,13.48
2018-11-10T09:26:46.962Z,13.48
2018-11-10T09:29:16.798Z,13.49
2018-11-10T09:31:47.173Z,13.55
2018-11-10T09:34:16.706Z,13.55
2018-11-10T09:36:46.276Z,13.58
2018-11-10T09:39:15.925Z,13.62
2018-11-10T09:41:46.791Z,13.66
2018-11-10T09:44:16.438Z,13.67
2018-11-10T09:46:46.703Z,13.73
2018-11-10T09:49:16.206Z,13.75
2018-11-10T09:51:45.593Z,13.76
2018-11-10T09:54:15.041Z,13.77
2018-11-10T09:56:44.503Z,13.80
2018-11-10T09:59:14.283Z,13.83
2018-11-10T10:01:43.852Z,13.85
2018-11-10T10:04:13.060Z,13.89
2018-11-10T10:06:42.431Z,13.92
2018-11-10T10:09:12.437Z,13.92
2018-11-10T10:11:42.661Z,14.00
2018-11-10T10:14:11.875Z,14.02
2018-11-10T10:16:41.204Z,14.02
2018-11-10T10:19:10.938Z,14.00
2018-11-10T10:21:40.334Z,14.00
2018-11-10T10:24:09.764Z,13.97
2018-11-10T10:26:40.033Z,14.06
2018-11-10T10:29:09.560Z,14.12
2018-11-10T10:31:39.815Z,14.16
2018-11-10T10:34:09.371Z,14.19
2018-11-10T10:36:38.555Z,14.24
2018-11-10T10:39:09.065Z,14.25
2018-11-10T10:41:39.068Z,14.22
2018-11-10T10:44:09.195Z,14.18
2018-11-10T10:46:38.554Z,14.15
2018-11-10T10:49:07.888Z,14.16
2018-11-10T10:51:37.566Z,14.12
2018-11-10T10:54:06.855Z,14.06
2018-11-10T10:56:36.324Z,14.03
2018-11-10T10:59:05.654Z,14.01
2018-11-10T11:01:40.336Z,13.96
2018-11-10T11:04:14.848Z,13.94
2018-11-10T11:06:44.138Z,13.97
2018-11-10T11:09:13.593Z,13.91
2018-11-10T11:11:43.034Z,13.84
2018-11-10T11:14:12.535Z,13.80
2018-11-10T11:16:42.039Z,13.80
2018-11-10T11:19:11.335Z,13.80
2018-11-10T11:21:40.756Z,13.75
2018-11-10T11:24:10.143Z,13.70
2018-11-10T11:26:39.572Z,13.67
2018-11-10T11:29:09.279Z,13.62
2018-11-10T11:31:38.964Z,13.58
2018-11-10T11:34:08.542Z,13.55
2018-11-10T11:36:38.022Z,13.48
2018-11-10T11:39:10.105Z,13.43
2018-11-10T11:41:39.739Z,13.40
2018-11-10T11:44:09.482Z,13.39
2018-11-10T11:46:38.693Z,13.37
2018-11-10T11:49:08.074Z,13.33
2018-11-10T11:51:40.410Z,13.31
2018-11-10T11:54:09.813Z,13.30
2018-11-10T11:56:39.413Z,13.27
2018-11-10T11:59:08.702Z,13.29
2018-11-10T12:01:38.173Z,13.30
2018-11-10T12:04:07.684Z,13.27
2018-11-10T12:06:37.064Z,13.25
2018-11-10T12:09:08.920Z,13.23
2018-11-10T12:11:38.216Z,13.20
2018-11-10T12:14:07.516Z,13.22
2018-11-10T12:16:37.022Z,13.21
2018-11-10T12:19:06.813Z,13.21
2018-11-10T12:21:36.468Z,13.20
2018-11-10T12:24:05.954Z,13.20
2018-11-10T12:26:35.844Z,13.18
2018-11-10T12:29:05.674Z,13.16
2018-11-10T12:31:35.351Z,13.17
2018-11-10T12:34:05.031Z,13.20
2018-11-10T12:36:34.523Z,13.18
2018-11-10T12:39:04.657Z,13.18
2018-11-10T12:41:34.281Z,13.17
2018-11-10T12:44:04.117Z,13.17
2018-11-10T12:46:33.524Z,13.20
2018-11-10T12:49:03.164Z,13.18
2018-11-10T12:51:32.482Z,13.24
2018-11-10T12:54:01.806Z,13.19
2018-11-10T12:56:31.086Z,13.21
2018-11-10T12:59:00.549Z,13.24
2018-11-10T13:01:30.546Z,13.27
2018-11-10T13:04:00.136Z,13.25
2018-11-10T13:06:29.544Z,13.32
2018-11-10T13:08:59.462Z,13.34
2018-11-10T13:11:29.133Z,13.41
2018-11-10T13:13:58.498Z,13.41
2018-11-10T13:16:27.788Z,13.47
2018-11-10T13:18:57.164Z,13.50
2018-11-10T13:21:26.674Z,13.53
2018-11-10T13:23:56.034Z,13.57
2018-11-10T13:26:25.431Z,13.59
2018-11-10T13:28:54.783Z,13.59
2018-11-10T13:31:24.363Z,13.59
2018-11-10T13:33:53.617Z,13.62
2018-11-10T13:36:23.021Z,13.59
2018-11-10T13:38:52.482Z,13.57
2018-11-10T13:41:21.858Z,13.59
2018-11-10T13:43:52.087Z,13.57
2018-11-10T13:46:22.280Z,13.59
2018-11-10T13:48:52.128Z,13.56
2018-11-10T13:51:22.059Z,13.58
2018-11-10T13:53:51.684Z,13.57
2018-11-10T13:56:21.535Z,13.58
2018-11-10T13:58:51.227Z,13.56
2018-11-10T14:01:20.758Z,13.60
2018-11-10T14:03:50.198Z,13.60
2018-11-10T14:06:19.599Z,13.59
2018-11-10T14:08:49.621Z,13.64
2018-11-10T14:11:18.979Z,13.63
2018-11-10T14:13:48.595Z,13.65
2018-11-10T14:16:18.112Z,13.66
2018-11-10T14:18:47.846Z,13.71
2018-11-10T14:21:17.455Z,13.72
2018-11-10T14:23:47.226Z,13.73
2018-11-10T14:26:16.764Z,13.72
2018-11-10T14:28:47.818Z,13.74
2018-11-10T14:31:17.695Z,13.76
2018-11-10T14:33:47.318Z,13.76
2018-11-10T14:36:16.899Z,13.76
2018-11-10T14:38:46.354Z,13.78
2018-11-10T14:41:16.089Z,13.81
2018-11-10T14:43:45.595Z,13.81
2018-11-10T14:46:14.957Z,13.79
2018-11-10T14:48:44.632Z,13.80
2018-11-10T14:51:14.132Z,13.84
2018-11-10T14:53:43.511Z,13.92
2018-11-10T14:56:12.971Z,13.91
2018-11-10T14:58:42.519Z,13.93
2018-11-10T15:01:12.314Z,13.92
2018-11-10T15:03:42.476Z,13.91
2018-11-10T15:06:16.351Z,13.97
2018-11-10T15:08:51.989Z,13.94
2018-11-10T15:11:25.995Z,13.97
2018-11-10T15:13:59.575Z,13.95
2018-11-10T15:16:32.702Z,13.95
2018-11-10T15:19:07.119Z,13.94
2018-11-10T15:21:40.152Z,13.94
2018-11-10T15:24:09.970Z,13.93
2018-11-10T15:26:39.610Z,13.96
2018-11-10T15:29:09.276Z,13.97
2018-11-10T15:31:38.753Z,13.99
2018-11-10T15:34:08.340Z,14.01
2018-11-10T15:36:37.901Z,14.05
2018-11-10T15:39:08.917Z,14.04
2018-11-10T15:41:38.447Z,14.06
2018-11-10T15:44:07.959Z,14.01
2018-11-10T15:46:38.229Z,14.05
2018-11-10T15:49:07.748Z,14.03
2018-11-10T15:51:37.422Z,14.03
2018-11-10T15:54:06.927Z,14.02
2018-11-10T15:56:36.379Z,14.03
2018-11-10T15:59:06.481Z,14.04
2018-11-10T16:01:35.939Z,14.06
2018-11-10T16:04:05.891Z,14.06
2018-11-10T16:06:35.297Z,14.05
2018-11-10T16:09:07.806Z,14.06
2018-11-10T16:11:37.348Z,14.04
2018-11-10T16:14:06.980Z,14.08
2018-11-10T16:16:36.436Z,14.07
2018-11-10T16:19:05.948Z,14.08
2018-11-10T16:21:35.332Z,14.09
2018-11-10T16:24:04.894Z,14.13
2018-11-10T16:26:34.846Z,14.19
2018-11-10T16:29:04.441Z,14.19
2018-11-10T16:31:34.066Z,14.26
2018-11-10T16:34:03.500Z,14.33
2018-11-10T16:36:33.225Z,14.40
2018-11-10T16:39:03.413Z,14.44
2018-11-10T16:41:34.183Z,14.48
2018-11-10T16:44:04.233Z,14.51
2018-11-10T16:46:34.189Z,14.53
2018-11-10T16:49:03.870Z,14.52
2018-11-10T16:51:33.191Z,14.51
2018-11-10T16:54:02.681Z,14.48
2018-11-10T16:56:32.006Z,14.52
2018-11-10T16:59:01.445Z,14.52
2018-11-10T17:01:30.753Z,14.61
2018-11-10T17:04:00.257Z,14.66
2018-11-10T17:06:29.589Z,14.68
2018-11-10T17:08:59.075Z,14.75
2018-11-10T17:11:28.881Z,14.76
2018-11-10T17:13:58.352Z,14.73
2018-11-10T17:16:28.522Z,14.80
2018-11-10T17:18:58.974Z,14.86
2018-11-10T17:21:28.577Z,14.82
2018-11-10T17:24:00.193Z,14.90
2018-11-10T17:26:29.783Z,14.89
2018-11-10T17:29:02.448Z,14.93
2018-11-10T17:31:31.799Z,14.93
2018-11-10T17:34:02.841Z,14.95
2018-11-10T17:36:33.347Z,14.95
2018-11-10T17:39:03.385Z,14.96
2018-11-10T17:41:33.707Z,14.99
2018-11-10T17:44:04.920Z,15.07
2018-11-10T17:46:34.516Z,15.12
2018-11-10T17:49:04.904Z,15.04
2018-11-10T17:51:35.272Z,15.05
2018-11-10T17:54:04.775Z,14.99
2018-11-10T17:56:34.153Z,15.00
2018-11-10T17:59:04.416Z,15.02
2018-11-10T18:01:33.754Z,15.07
2018-11-10T18:04:03.596Z,15.13
2018-11-10T18:06:32.922Z,15.12
2018-11-10T18:09:02.918Z,15.21
2018-11-10T18:11:32.296Z,15.14
2018-11-10T18:14:01.662Z,15.10
2018-11-10T18:16:31.726Z,15.11
2018-11-10T18:19:01.358Z,15.04
2018-11-10T18:21:31.419Z,15.04
2018-11-10T18:24:00.728Z,15.03
2018-11-10T18:26:29.972Z,15.05
2018-11-10T18:28:59.235Z,15.02
2018-11-10T18:31:28.721Z,14.98
2018-11-10T18:33:58.118Z,14.89
2018-11-10T18:36:27.458Z,14.81
2018-11-10T18:38:56.892Z,14.80
2018-11-10T18:41:26.458Z,14.73
2018-11-10T18:43:55.845Z,14.71
2018-11-10T18:46:25.196Z,14.66
2018-11-10T18:48:54.645Z,14.63
2018-11-10T18:51:24.028Z,14.60
2018-11-10T18:53:53.556Z,14.48
2018-11-10T18:56:22.963Z,14.41
2018-11-10T18:58:52.474Z,14.40
2018-11-10T19:01:22.228Z,14.39
2018-11-10T19:03:51.497Z,14.28
2018-11-10T19:06:21.001Z,14.27
2018-11-10T19:08:50.506Z,14.19
2018-11-10T19:11:19.887Z,14.17
2018-11-10T19:13:49.342Z,14.11
2018-11-10T19:16:18.655Z,14.04
2018-11-10T19:18:48.115Z,13.95
2018-11-10T19:21:17.628Z,13.92
2018-11-10T19:23:47.003Z,13.88
2018-11-10T19:26:16.418Z,13.85
2018-11-10T19:28:46.554Z,13.86
2018-11-10T19:31:17.136Z,13.79
2018-11-10T19:33:46.731Z,13.75
2018-11-10T19:36:22.546Z,13.71
2018-11-10T19:38:53.260Z,13.65
2018-11-10T19:41:23.055Z,13.66
2018-11-10T19:43:52.564Z,13.64
2018-11-10T19:46:22.037Z,13.68
2018-11-10T19:48:51.433Z,13.64
2018-11-10T19:51:21.022Z,13.63
2018-11-10T19:53:50.531Z,13.63
2018-11-10T19:56:20.119Z,13.62
2018-11-10T19:58:49.501Z,13.60
2018-11-10T20:01:18.894Z,13.59
2018-11-10T20:03:48.312Z,13.61
2018-11-10T20:06:18.312Z,13.60
2018-11-10T20:08:47.764Z,13.60
2018-11-10T20:11:17.149Z,13.62
2018-11-10T20:13:46.697Z,13.59
2018-11-10T20:16:18.354Z,13.59
2018-11-10T20:18:48.772Z,13.60
2018-11-10T20:21:18.373Z,13.54
2018-11-10T20:23:48.135Z,13.48
2018-11-10T20:26:17.820Z,13.47
2018-11-10T20:28:47.348Z,13.44
2018-11-10T20:31:17.178Z,13.42
2018-11-10T20:33:46.684Z,13.41
2018-11-10T20:36:16.068Z,13.37
2018-11-10T20:38:45.471Z,13.35
2018-11-10T20:41:14.895Z,13.35
2018-11-10T20:43:44.374Z,13.34
2018-11-10T20:46:13.881Z,13.37
2018-11-10T20:48:43.420Z,13.33
2018-11-10T20:51:13.569Z,13.30
2018-11-10T20:53:42.988Z,13.29
2018-11-10T20:56:13.422Z,13.29
2018-11-10T20:58:42.754Z,13.24
2018-11-10T21:01:12.165Z,13.22
2018-11-10T21:03:41.557Z,13.22
2018-11-10T21:06:10.829Z,13.20
2018-11-10T21:08:40.429Z,13.20
2018-11-10T21:11:10.766Z,13.17
2018-11-10T21:13:40.134Z,13.19
2018-11-10T21:16:09.499Z,13.18
2018-11-10T21:18:38.910Z,13.20
2018-11-10T21:21:08.432Z,13.21
2018-11-10T21:23:38.118Z,13.20
2018-11-10T21:26:07.523Z,13.17
2018-11-10T21:28:37.118Z,13.17
2018-11-10T21:31:06.702Z,13.16
2018-11-10T21:33:36.366Z,13.15
2018-11-10T21:36:05.644Z,13.16
2018-11-10T21:38:35.276Z,13.16
2018-11-10T21:41:06.049Z,13.16
2018-11-10T21:43:35.374Z,13.16
2018-11-10T21:46:04.974Z,13.17
2018-11-10T21:48:34.460Z,13.17
2018-11-10T21:51:04.056Z,13.18
2018-11-10T21:53:33.366Z,13.23
2018-11-10T21:56:03.321Z,13.22
2018-11-10T21:58:32.865Z,13.22
2018-11-10T22:01:02.276Z,13.20
2018-11-10T22:03:31.737Z,13.23
2018-11-10T22:06:01.323Z,13.25
2018-11-10T22:08:30.813Z,13.24
2018-11-10T22:11:00.324Z,13.25
2018-11-10T22:13:29.952Z,13.26
2018-11-10T22:15:59.590Z,13.29
2018-11-10T22:18:29.108Z,13.27
2018-11-10T22:20:58.658Z,13.29
2018-11-10T22:23:29.473Z,13.30
2018-11-10T22:25:58.830Z,13.28
2018-11-10T22:28:28.438Z,13.29
2018-11-10T22:30:58.516Z,13.27
2018-11-10T22:33:28.443Z,13.27
2018-11-10T22:35:58.792Z,13.29
2018-11-10T22:38:28.565Z,13.25
2018-11-10T22:40:58.319Z,13.27
2018-11-10T22:43:27.736Z,13.26
2018-11-10T22:45:57.250Z,13.27
2018-11-10T22:48:26.766Z,13.27
2018-11-10T22:50:56.337Z,13.24
2018-11-10T22:53:26.362Z,13.21
2018-11-10T22:55:55.854Z,13.21
2018-11-10T22:58:25.415Z,13.19
2018-11-10T23:01:00.046Z,13.19
2018-11-10T23:03:29.777Z,13.17
2018-11-10T23:05:59.595Z,13.15
2018-11-10T23:08:29.287Z,13.15
2018-11-10T23:10:58.788Z,13.15
2018-11-10T23:13:28.331Z,13.15
2018-11-10T23:15:57.858Z,13.12
2018-11-10T23:18:27.666Z,13.11
2018-11-10T23:20:57.207Z,13.13
2018-11-10T23:23:26.798Z,13.15
2018-11-10T23:25:56.292Z,13.16
2018-11-10T23:28:26.056Z,13.16
2018-11-10T23:30:55.514Z,13.19
2018-11-10T23:33:25.214Z,13.18
2018-11-10T23:35:57.061Z,13.20
2018-11-10T23:38:27.491Z,13.15
2018-11-10T23:40:57.001Z,13.12
2018-11-10T23:43:26.496Z,13.13
2018-11-10T23:45:55.871Z,13.12
2018-11-10T23:48:25.385Z,13.11
2018-11-10T23:50:54.846Z,13.13
2018-11-10T23:53:24.919Z,13.10
2018-11-10T23:55:54.401Z,13.10
2018-11-10T23:58:24.168Z,13.11
